This is the latest recevied weather packets stored in our database for station/object HI3RRR-15. If no packets are shown the sender has not sent any weather packets the latest 10 day(s).
| Time | Temp. | Humidity | Pressure | Rain* | Wind** | Luminosity | Snow |
|---|---|---|---|---|---|---|---|
| 1787793803 | 25° C | 85% | 1016 hPa | 0 mm | - | - | - |
| 1787793202 | 25° C | 85% | 1017 hPa | 0 mm | - | - | - |
| 1787792602 | 25° C | 85% | 1017 hPa | 0 mm | - | - | - |
| 1787792001 | 25° C | 85% | 1018 hPa | 0 mm | - | - | - |
| 1787791401 | 25° C | 85% | 1018 hPa | 0 mm | - | - | - |
| 1787790800 | 25.56° C | 79% | 1016 hPa | 0 mm | - | - | - |
| 1787790200 | 25.56° C | 80% | 1017 hPa | 0 mm | - | - | - |
| 1787789599 | 25.56° C | 84% | 1017 hPa | 0 mm | - | - | - |
| 1787788998 | 25.56° C | 84% | 1017 hPa | 0 mm | - | - | - |
| 1787788398 | 25.56° C | 84% | 1017 hPa | 0 mm | - | - | - |
| 1787787797 | 25.56° C | 84% | 1017 hPa | 0 mm | - | - | - |
| 1787787197 | 26.11° C | 80% | 1016 hPa | 0 mm | - | - | - |
| 1787786591 | 26.11° C | 80% | 1016 hPa | 0 mm | - | - | - |
| 1787785990 | 26.11° C | 80% | 1017 hPa | 0 mm | - | - | - |
| 1787785389 | 26.11° C | 80% | 1017 hPa | 0 mm | - | - | - |
| 1787784789 | 26.67° C | 83% | 1017 hPa | 0 mm | - | - | - |
| 1787784188 | 26.67° C | 79% | 1017 hPa | 0 mm | - | - | - |
| 1787783588 | 27.78° C | 69% | 1017 hPa | 0 mm | - | - | - |
| 1787782987 | 27.78° C | 69% | 1016 hPa | 0.51 mm | - | - | - |
| 1787782386 | 27.78° C | 69% | 1016 hPa | 0 mm | - | - | - |
| 1787781785 | 27.78° C | 69% | 1016 hPa | 0.51 mm | - | - | - |
| 1787781185 | 27.78° C | 69% | 1016 hPa | 0 mm | - | - | - |
| 1787780584 | 30.56° C | 47% | 1015 hPa | 0.51 mm | - | - | - |
| 1787779983 | 30.56° C | 47% | 1015 hPa | 0.51 mm | - | - | - |
| 1787779383 | 30.56° C | 47% | 1014 hPa | 0 mm | - | - | - |
* Rain latest hour (hover to see other rain measurements)
** Current wind speed in m/s (hover to see current wind gust speed)